Time;durP1;ratioP1;P1;durP2;ratioP2;P2;SDS_P1;SDS_P2;PMS_P1;PMS_P2;Temp;Humidity;BMP_temperature;BMP_pressure;BME280_temperature;BME280_humidity;BME280_pressure;Samples;Min_cycle;Max_cycle;Signal;HPM_P1;HPM_P2
2022/04/08 00:01:03;;;;;;;10.32;0.63;;;6.30;99.90;;;;;;5039188;28;20359;-40
2022/04/08 00:03:29;;;;;;;5.63;0.60;;;6.30;99.90;;;;;;5023634;28;20405;-41
2022/04/08 00:05:54;;;;;;;2.67;0.30;;;6.30;99.90;;;;;;5043882;28;20040;-41
2022/04/08 00:08:23;;;;;;;6.60;0.65;;;6.20;99.90;;;;;;5040632;28;20063;-39
2022/04/08 00:10:49;;;;;;;4.82;0.88;;;6.10;99.90;;;;;;5036013;28;20122;-38
2022/04/08 00:13:15;;;;;;;3.72;0.30;;;5.90;99.90;;;;;;5031957;28;20592;-39
2022/04/08 00:15:41;;;;;;;1.00;0.20;;;5.80;99.90;;;;;;5030748;28;20033;-38
2022/04/08 00:18:07;;;;;;;4.45;0.55;;;5.70;99.90;;;;;;5028515;28;20087;-38
2022/04/08 00:20:36;;;;;;;4.95;0.30;;;5.60;99.90;;;;;;5038746;28;20037;-37
2022/04/08 00:23:04;;;;;;;1.50;0.10;;;5.50;99.90;;;;;;5040480;28;20505;-38
2022/04/08 00:25:30;;;;;;;2.63;0.32;;;5.40;99.90;;;;;;5038081;28;20068;-39
2022/04/08 00:27:56;;;;;;;4.35;0.50;;;5.20;99.90;;;;;;5042736;28;20148;-37
2022/04/08 00:30:22;;;;;;;2.42;0.28;;;5.00;99.90;;;;;;5044437;28;20068;-37
2022/04/08 00:32:47;;;;;;;1.90;0.20;;;4.80;99.90;;;;;;5042059;28;20501;-37
2022/04/08 00:35:13;;;;;;;2.70;0.30;;;4.80;99.90;;;;;;5037279;28;20187;-39
2022/04/08 00:37:40;;;;;;;0.93;0.20;;;4.70;99.90;;;;;;5047191;28;20035;-39
2022/04/08 00:40:07;;;;;;;1.25;0.15;;;4.80;99.90;;;;;;5046270;28;20052;-37
2022/04/08 00:42:33;;;;;;;4.20;0.20;;;4.80;99.90;;;;;;5046707;28;20032;-37
2022/04/08 00:44:59;;;;;;;3.58;0.20;;;4.90;99.90;;;;;;5038949;28;20144;-39
2022/04/08 00:47:25;;;;;;;3.30;0.32;;;4.90;99.90;;;;;;5023673;28;20672;-37
2022/04/08 00:49:52;;;;;;;2.05;0.10;;;4.90;99.90;;;;;;5044545;28;20045;-37
2022/04/08 00:52:18;;;;;;;3.33;0.40;;;5.00;99.90;;;;;;5037864;28;20482;-40
2022/04/08 00:54:45;;;;;;;4.30;0.30;;;4.90;99.90;;;;;;5039246;28;20040;-37
2022/04/08 00:57:11;;;;;;;3.65;0.40;;;4.80;99.90;;;;;;5048445;28;20116;-38
2022/04/08 00:59:37;;;;;;;5.03;0.38;;;4.70;99.90;;;;;;5041763;28;20432;-37
2022/04/08 01:02:03;;;;;;;6.63;0.98;;;4.50;99.90;;;;;;5029797;28;20545;-40
2022/04/08 01:04:29;;;;;;;7.03;0.55;;;4.50;99.90;;;;;;5040861;28;20115;-42
2022/04/08 01:06:55;;;;;;;3.70;0.40;;;4.50;99.90;;;;;;5039330;28;20056;-54
2022/04/08 01:09:21;;;;;;;4.70;0.55;;;4.50;99.90;;;;;;5044194;28;20063;-38
2022/04/08 01:11:47;;;;;;;5.78;0.50;;;4.50;99.90;;;;;;5033365;28;20450;-37
2022/04/08 01:14:14;;;;;;;5.95;0.88;;;4.50;99.90;;;;;;5030585;28;20047;-38
2022/04/08 01:16:41;;;;;;;8.48;1.45;;;4.50;99.90;;;;;;5041804;28;20038;-40
2022/04/08 01:19:07;;;;;;;6.32;1.05;;;4.50;99.90;;;;;;5041608;28;20095;-39
2022/04/08 01:21:33;;;;;;;5.28;0.60;;;4.50;99.90;;;;;;5033548;28;20158;-37
2022/04/08 01:24:00;;;;;;;10.65;0.50;;;4.50;99.90;;;;;;5044951;28;20127;-37
2022/04/08 01:26:26;;;;;;;7.95;0.73;;;4.60;99.90;;;;;;5045376;28;20044;-38
2022/04/08 01:28:53;;;;;;;5.45;0.60;;;4.60;99.90;;;;;;5044675;28;20099;-37
2022/04/08 01:31:19;;;;;;;5.30;1.05;;;4.60;99.90;;;;;;5031511;28;20120;-37
2022/04/08 01:33:45;;;;;;;5.75;0.60;;;4.60;99.90;;;;;;5046170;28;20194;-38
2022/04/08 01:36:11;;;;;;;4.82;0.40;;;4.60;99.90;;;;;;5044920;28;20620;-40
2022/04/08 01:38:37;;;;;;;3.75;0.60;;;4.60;99.90;;;;;;5022762;28;20037;-39
2022/04/08 01:41:02;;;;;;;6.55;0.70;;;4.60;99.90;;;;;;5038439;28;20041;-38
2022/04/08 01:43:28;;;;;;;9.18;0.60;;;4.60;99.90;;;;;;5059350;28;20082;-38
2022/04/08 01:45:54;;;;;;;7.32;0.55;;;4.60;99.90;;;;;;5025475;28;20119;-40
2022/04/08 01:48:20;;;;;;;5.85;0.73;;;4.70;99.90;;;;;;5044566;28;20059;-41
2022/04/08 01:50:45;;;;;;;8.32;0.88;;;4.70;99.90;;;;;;5041414;28;20144;-40
2022/04/08 01:53:13;;;;;;;4.57;0.90;;;4.70;99.90;;;;;;5042019;28;20411;-38
2022/04/08 01:55:39;;;;;;;4.72;0.68;;;4.70;99.90;;;;;;5041990;28;20033;-37
2022/04/08 01:58:06;;;;;;;9.70;0.77;;;4.70;99.90;;;;;;5042473;28;20041;-37
2022/04/08 02:00:32;;;;;;;7.40;0.52;;;4.60;99.90;;;;;;5041597;28;20033;-38
2022/04/08 02:02:58;;;;;;;4.72;0.63;;;4.70;99.90;;;;;;5044307;28;20047;-38
2022/04/08 02:05:24;;;;;;;4.68;0.90;;;4.60;99.90;;;;;;5040886;28;20059;-39
2022/04/08 02:07:53;;;;;;;8.95;1.02;;;4.60;99.90;;;;;;5040449;28;20045;-38
2022/04/08 02:10:19;;;;;;;10.35;0.85;;;4.60;99.90;;;;;;5036910;28;20053;-39
2022/04/08 02:12:44;;;;;;;8.35;0.80;;;4.50;99.90;;;;;;5041873;28;20037;-38
2022/04/08 02:15:11;;;;;;;7.45;0.80;;;4.50;99.90;;;;;;5041866;28;20147;-37
2022/04/08 02:17:36;;;;;;;10.38;1.60;;;4.40;99.90;;;;;;5034490;28;20048;-38
2022/04/08 02:20:04;;;;;;;7.65;0.75;;;4.40;99.90;;;;;;5045070;28;20045;-39
2022/04/08 02:22:31;;;;;;;7.95;0.95;;;4.30;99.90;;;;;;5039505;28;20401;-38
2022/04/08 02:24:58;;;;;;;8.80;0.77;;;4.30;99.90;;;;;;5025452;28;20125;-38
2022/04/08 02:27:26;;;;;;;16.90;1.00;;;4.30;99.90;;;;;;5041118;28;20087;-38
2022/04/08 02:29:52;;;;;;;21.10;1.45;;;4.30;99.90;;;;;;5045476;28;20044;-41
2022/04/08 02:32:17;;;;;;;7.07;0.70;;;4.40;99.90;;;;;;5026441;28;20473;-38
2022/04/08 02:34:43;;;;;;;6.10;0.50;;;4.40;99.90;;;;;;5048154;28;20029;-38
2022/04/08 02:37:09;;;;;;;9.02;1.02;;;4.50;99.90;;;;;;5046181;28;20040;-39
2022/04/08 02:39:34;;;;;;;11.70;0.80;;;4.50;99.90;;;;;;5035155;28;20085;-39
2022/04/08 02:42:00;;;;;;;11.88;0.90;;;4.50;99.90;;;;;;5024020;28;20357;-38
2022/04/08 02:44:26;;;;;;;4.28;0.68;;;4.50;99.90;;;;;;5043103;28;20088;-39
2022/04/08 02:46:51;;;;;;;5.88;0.60;;;4.50;99.90;;;;;;5043204;28;20081;-38
2022/04/08 02:49:17;;;;;;;4.72;0.80;;;4.40;99.90;;;;;;5042246;28;20044;-39
2022/04/08 02:51:43;;;;;;;5.75;0.70;;;4.30;99.90;;;;;;5042537;28;20044;-38
2022/04/08 02:54:10;;;;;;;6.43;0.68;;;4.30;99.90;;;;;;5048110;28;20029;-38
2022/04/08 02:56:39;;;;;;;7.88;0.80;;;4.20;99.90;;;;;;5032610;28;20171;-41
2022/04/08 02:59:04;;;;;;;4.78;0.65;;;4.20;99.90;;;;;;5014480;28;20050;-42
2022/04/08 03:01:30;;;;;;;6.22;0.70;;;4.20;99.90;;;;;;5032980;28;20033;-39
2022/04/08 03:03:55;;;;;;;6.18;0.75;;;4.30;99.90;;;;;;5033686;28;20087;-38
2022/04/08 03:06:21;;;;;;;11.73;1.08;;;4.40;99.90;;;;;;5037010;28;20401;-40
2022/04/08 03:08:47;;;;;;;8.85;0.98;;;4.50;99.90;;;;;;5038013;28;20045;-40
2022/04/08 03:11:12;;;;;;;9.18;0.75;;;4.50;99.90;;;;;;5045831;28;20065;-38
2022/04/08 03:13:38;;;;;;;8.13;0.90;;;4.60;99.90;;;;;;5025520;28;20799;-38
2022/04/08 03:16:04;;;;;;;10.35;1.00;;;4.70;99.90;;;;;;5028866;28;20033;-39
2022/04/08 03:18:30;;;;;;;14.52;2.00;;;4.90;99.90;;;;;;5025749;28;20041;-39
2022/04/08 03:20:55;;;;;;;11.23;0.88;;;4.90;99.90;;;;;;5047353;28;20072;-38
2022/04/08 03:23:21;;;;;;;9.35;1.67;;;5.00;99.90;;;;;;5048336;28;20045;-38
2022/04/08 03:25:47;;;;;;;9.55;0.90;;;5.00;99.90;;;;;;5028895;28;20029;-39
2022/04/08 03:28:12;;;;;;;5.40;0.70;;;5.00;99.90;;;;;;5035623;28;20194;-39
2022/04/08 03:30:38;;;;;;;7.13;0.80;;;5.00;99.90;;;;;;5044064;28;20179;-38
2022/04/08 03:33:04;;;;;;;8.65;0.80;;;4.90;99.90;;;;;;5042441;28;20117;-39
2022/04/08 03:35:30;;;;;;;7.25;0.80;;;4.80;99.90;;;;;;5042458;28;20033;-38
2022/04/08 03:37:56;;;;;;;7.65;0.80;;;4.70;99.90;;;;;;5027126;28;20056;-38
2022/04/08 03:40:22;;;;;;;5.10;0.70;;;4.60;99.90;;;;;;5043581;28;20040;-39
2022/04/08 03:42:47;;;;;;;5.55;1.10;;;4.60;99.90;;;;;;5051952;28;20532;-39
2022/04/08 03:45:13;;;;;;;7.68;0.80;;;4.60;99.90;;;;;;5047476;28;20130;-38
2022/04/08 03:47:39;;;;;;;5.97;0.80;;;4.50;99.90;;;;;;5040748;28;20075;-38
2022/04/08 03:50:05;;;;;;;5.28;0.95;;;4.50;99.90;;;;;;5046388;28;20072;-39
2022/04/08 03:52:34;;;;;;;3.92;1.33;;;4.40;99.90;;;;;;5043983;28;20065;-37
2022/04/08 03:55:00;;;;;;;3.80;0.77;;;4.40;99.90;;;;;;5041996;28;20020;-39
2022/04/08 03:57:27;;;;;;;4.07;0.50;;;4.30;99.90;;;;;;5035485;28;20037;-40
2022/04/08 03:59:52;;;;;;;7.45;0.82;;;4.30;99.90;;;;;;5038276;28;20521;-40
2022/04/08 04:02:19;;;;;;;2.38;0.50;;;4.20;99.90;;;;;;5042742;28;20124;-39
2022/04/08 04:04:45;;;;;;;3.45;0.50;;;4.20;99.90;;;;;;5038834;28;20051;-38
2022/04/08 04:07:10;;;;;;;6.28;0.77;;;4.30;99.90;;;;;;5022480;28;20067;-38
2022/04/08 04:09:36;;;;;;;4.05;0.68;;;4.30;99.90;;;;;;5042023;28;20539;-38
2022/04/08 04:12:02;;;;;;;3.97;0.57;;;4.30;99.90;;;;;;5045249;28;20033;-39
2022/04/08 04:14:27;;;;;;;2.38;0.40;;;4.30;99.90;;;;;;5032348;28;20029;-38
2022/04/08 04:16:53;;;;;;;4.38;0.68;;;4.30;99.90;;;;;;5042517;28;20409;-38
2022/04/08 04:19:19;;;;;;;4.20;0.70;;;4.30;99.90;;;;;;5040394;28;20104;-39
2022/04/08 04:21:45;;;;;;;3.83;0.43;;;4.30;99.90;;;;;;5028658;28;20545;-38
2022/04/08 04:24:10;;;;;;;4.55;0.40;;;4.30;99.90;;;;;;5035795;28;20045;-38
2022/04/08 04:26:36;;;;;;;1.98;0.60;;;4.30;99.90;;;;;;5038581;28;20045;-37
2022/04/08 04:29:02;;;;;;;4.88;0.60;;;4.40;99.90;;;;;;5043732;28;20111;-41
2022/04/08 04:31:27;;;;;;;4.13;0.55;;;4.30;99.90;;;;;;5041755;28;20071;-41
2022/04/08 04:33:53;;;;;;;6.25;0.70;;;4.30;99.90;;;;;;5038489;28;20045;-39
2022/04/08 04:36:19;;;;;;;8.02;0.60;;;4.30;99.90;;;;;;5040333;28;20037;-39
2022/04/08 04:38:44;;;;;;;8.02;1.17;;;4.30;99.90;;;;;;5041485;28;20473;-38
2022/04/08 04:41:10;;;;;;;5.07;0.55;;;4.40;99.90;;;;;;5042987;28;20033;-38
2022/04/08 04:43:36;;;;;;;4.30;0.80;;;4.40;99.90;;;;;;5039105;28;20554;-43
2022/04/08 04:46:03;;;;;;;4.15;0.70;;;4.50;99.90;;;;;;5047062;28;20041;-39
2022/04/08 04:48:30;;;;;;;6.03;0.85;;;4.50;99.90;;;;;;5018609;28;20473;-38
2022/04/08 04:50:56;;;;;;;4.45;1.27;;;4.50;99.90;;;;;;5045282;28;20361;-38
2022/04/08 04:53:23;;;;;;;3.75;1.15;;;4.50;99.90;;;;;;5025873;28;20041;-39
2022/04/08 04:55:49;;;;;;;9.80;1.33;;;4.50;99.90;;;;;;5041755;28;20440;-38
2022/04/08 04:58:15;;;;;;;3.97;0.60;;;4.50;99.90;;;;;;5039909;28;20033;-39
2022/04/08 05:00:41;;;;;;;8.70;0.82;;;4.50;99.90;;;;;;5038975;28;20402;-38
2022/04/08 05:03:08;;;;;;;5.13;0.60;;;4.50;99.90;;;;;;5049508;28;20479;-40
2022/04/08 05:05:34;;;;;;;5.07;0.77;;;4.40;99.90;;;;;;5034179;28;20041;-38
2022/04/08 05:08:02;;;;;;;4.88;0.90;;;4.40;99.90;;;;;;5045212;28;20057;-39
2022/04/08 05:10:29;;;;;;;10.25;1.63;;;4.40;99.90;;;;;;5042288;28;20086;-39
2022/04/08 05:12:55;;;;;;;6.55;1.60;;;4.40;99.90;;;;;;5025666;28;20036;-38
2022/04/08 05:15:21;;;;;;;5.47;1.50;;;4.50;99.90;;;;;;5034955;28;20047;-38
2022/04/08 05:17:46;;;;;;;9.50;1.67;;;4.50;99.90;;;;;;5043131;28;20041;-39
2022/04/08 05:20:13;;;;;;;6.32;1.05;;;4.50;99.90;;;;;;5027305;28;20037;-40
2022/04/08 05:22:41;;;;;;;6.25;1.00;;;4.40;99.90;;;;;;5040688;28;20040;-40
2022/04/08 05:25:07;;;;;;;7.15;1.23;;;4.40;99.90;;;;;;5055320;28;20048;-41
2022/04/08 05:27:41;;;;;;;4.40;0.68;;;4.40;99.90;;;;;;5049464;28;20586;-39
2022/04/08 05:30:18;;;;;;;2.08;0.30;;;4.40;99.90;;;;;;5036052;28;20095;-39
2022/04/08 05:32:47;;;;;;;1.55;0.30;;;4.30;99.90;;;;;;5041949;28;20033;-39
2022/04/08 05:35:17;;;;;;;2.78;0.30;;;4.10;99.90;;;;;;5041342;28;20123;-39
2022/04/08 05:37:45;;;;;;;1.67;0.32;;;4.00;99.90;;;;;;5045648;28;20051;-40
2022/04/08 05:40:16;;;;;;;2.63;1.08;;;3.80;99.90;;;;;;5045535;28;20068;-40
2022/04/08 05:42:46;;;;;;;2.40;0.60;;;3.60;99.90;;;;;;5045355;28;20089;-38
2022/04/08 05:45:14;;;;;;;1.67;0.85;;;3.40;99.90;;;;;;5046337;28;20095;-40
2022/04/08 05:47:40;;;;;;;1.42;0.30;;;3.20;99.90;;;;;;5048325;28;20037;-38
2022/04/08 05:50:07;;;;;;;1.35;0.30;;;3.10;99.90;;;;;;5043833;28;20068;-38
2022/04/08 05:52:33;;;;;;;2.17;0.80;;;3.00;99.90;;;;;;5053909;28;20079;-42
2022/04/08 05:54:58;;;;;;;3.47;0.52;;;3.00;99.90;;;;;;5040935;28;20063;-38
2022/04/08 05:57:24;;;;;;;3.72;0.70;;;3.00;99.90;;;;;;5040881;28;20033;-39
2022/04/08 05:59:50;;;;;;;1.63;0.63;;;2.90;99.90;;;;;;5040790;28;20033;-39
2022/04/08 06:02:16;;;;;;;2.45;0.47;;;2.80;99.90;;;;;;5045021;28;20098;-38
2022/04/08 06:04:42;;;;;;;2.20;0.50;;;2.80;99.90;;;;;;5034315;28;20068;-38
2022/04/08 06:07:08;;;;;;;1.83;0.45;;;2.70;99.90;;;;;;5042885;28;20079;-39
2022/04/08 06:09:34;;;;;;;2.95;0.65;;;2.60;99.90;;;;;;5043998;28;20045;-38
2022/04/08 06:12:00;;;;;;;4.93;0.55;;;2.60;99.90;;;;;;5021347;28;20037;-39
2022/04/08 06:14:26;;;;;;;3.38;0.60;;;2.50;99.90;;;;;;5048546;28;20135;-39
2022/04/08 06:16:55;;;;;;;5.13;1.02;;;2.60;99.90;;;;;;5034940;28;20033;-37
2022/04/08 06:19:20;;;;;;;2.60;0.55;;;2.50;99.90;;;;;;5047412;28;20036;-40
2022/04/08 06:21:46;;;;;;;5.43;0.50;;;2.50;99.90;;;;;;5022072;28;20037;-38
2022/04/08 06:24:12;;;;;;;1.83;0.60;;;2.60;99.90;;;;;;5041353;28;20029;-38
2022/04/08 06:26:38;;;;;;;2.50;0.60;;;2.60;99.90;;;;;;5026022;28;20048;-39
2022/04/08 06:29:04;;;;;;;4.43;0.82;;;2.60;99.90;;;;;;5038812;28;20116;-39
2022/04/08 06:31:31;;;;;;;2.08;0.40;;;2.60;99.90;;;;;;5040712;28;20048;-38
2022/04/08 06:33:58;;;;;;;7.32;0.70;;;2.70;99.90;;;;;;5035287;28;20041;-38
2022/04/08 06:36:28;;;;;;;1.92;0.50;;;2.70;99.90;;;;;;5036947;28;20498;-37
2022/04/08 06:38:54;;;;;;;1.42;0.40;;;2.70;99.90;;;;;;5036058;28;20045;-43
2022/04/08 06:41:20;;;;;;;3.95;0.60;;;2.70;99.90;;;;;;5037297;28;20052;-37
2022/04/08 06:43:46;;;;;;;2.78;0.63;;;2.80;99.90;;;;;;5037637;28;20056;-37
2022/04/08 06:46:12;;;;;;;1.58;0.65;;;2.80;99.90;;;;;;5025849;28;20139;-42
2022/04/08 06:48:38;;;;;;;3.95;0.70;;;2.80;99.90;;;;;;5020952;28;20099;-37
2022/04/08 06:51:04;;;;;;;2.17;0.40;;;2.90;99.90;;;;;;5038578;28;20116;-41
2022/04/08 06:53:34;;;;;;;3.90;0.60;;;2.90;99.90;;;;;;5035670;28;20449;-38
2022/04/08 06:56:03;;;;;;;1.80;0.50;;;2.90;99.90;;;;;;5008496;28;20037;-38
2022/04/08 06:58:30;;;;;;;3.35;0.75;;;3.00;99.90;;;;;;5052958;28;20042;-38
2022/04/08 07:00:56;;;;;;;7.93;2.15;;;3.10;99.90;;;;;;5036330;28;20440;-38
2022/04/08 07:03:22;;;;;;;5.88;2.63;;;3.20;99.90;;;;;;5036229;28;20269;-38
2022/04/08 07:05:48;;;;;;;5.72;2.67;;;3.30;99.90;;;;;;5038326;28;20091;-39
2022/04/08 07:08:14;;;;;;;5.28;0.90;;;3.40;99.90;;;;;;5038482;28;20131;-38
2022/04/08 07:10:40;;;;;;;2.15;0.60;;;3.40;99.90;;;;;;5030944;28;20140;-40
2022/04/08 07:13:07;;;;;;;2.50;0.60;;;3.40;99.90;;;;;;5035574;28;20195;-38
2022/04/08 07:15:33;;;;;;;3.97;0.63;;;3.50;99.90;;;;;;5039576;28;20038;-38
2022/04/08 07:17:58;;;;;;;2.78;0.45;;;3.50;99.90;;;;;;5044667;28;20045;-39
2022/04/08 07:20:24;;;;;;;2.47;0.70;;;3.60;99.90;;;;;;5048347;28;20068;-39
2022/04/08 07:22:51;;;;;;;1.95;0.57;;;3.70;99.90;;;;;;5046021;28;20073;-39
2022/04/08 07:25:18;;;;;;;2.53;0.65;;;3.80;99.90;;;;;;5040964;28;20053;-39
2022/04/08 07:27:47;;;;;;;1.08;0.40;;;3.90;99.90;;;;;;5041371;28;20073;-42
2022/04/08 07:30:14;;;;;;;2.72;0.70;;;4.00;99.90;;;;;;5038439;28;20045;-38
2022/04/08 07:32:40;;;;;;;3.38;0.70;;;4.10;99.90;;;;;;5040712;28;20049;-37
2022/04/08 07:35:07;;;;;;;3.25;0.73;;;4.20;99.90;;;;;;5044294;28;20517;-36
2022/04/08 07:37:33;;;;;;;4.32;0.98;;;4.30;99.90;;;;;;5053286;28;20491;-39
2022/04/08 07:39:59;;;;;;;2.78;0.70;;;4.40;99.90;;;;;;5028600;28;20049;-36
2022/04/08 07:42:25;;;;;;;3.13;1.23;;;4.60;99.90;;;;;;5047054;28;20044;-38
2022/04/08 07:44:51;;;;;;;2.05;0.80;;;4.70;99.90;;;;;;5033315;28;20068;-39
2022/04/08 07:47:18;;;;;;;2.88;0.90;;;4.80;99.90;;;;;;5055295;28;20038;-38
2022/04/08 07:49:44;;;;;;;3.67;0.90;;;5.00;99.90;;;;;;5044673;28;20040;-39
2022/04/08 07:52:09;;;;;;;2.30;1.10;;;5.00;99.90;;;;;;5054713;28;20072;-38
2022/04/08 07:54:35;;;;;;;4.40;0.95;;;5.10;99.90;;;;;;5027803;28;20187;-39
2022/04/08 07:57:01;;;;;;;4.85;1.10;;;5.20;99.90;;;;;;5041493;28;20038;-38
2022/04/08 07:59:27;;;;;;;3.72;1.50;;;5.30;99.90;;;;;;5038377;28;20064;-40
2022/04/08 08:01:52;;;;;;;6.38;1.50;;;5.40;99.90;;;;;;5038008;28;20398;-38
2022/04/08 08:04:18;;;;;;;7.32;1.70;;;5.50;99.90;;;;;;5048068;28;20172;-38
2022/04/08 08:06:43;;;;;;;5.32;1.88;;;5.50;99.90;;;;;;5046902;28;20441;-41
2022/04/08 08:09:09;;;;;;;5.40;1.33;;;5.50;99.90;;;;;;5026694;28;20048;-39
2022/04/08 08:11:35;;;;;;;9.57;2.42;;;5.50;99.90;;;;;;5041452;28;20537;-39
2022/04/08 08:14:01;;;;;;;9.35;2.33;;;5.60;99.90;;;;;;5042003;28;20033;-38
2022/04/08 08:16:26;;;;;;;12.15;1.90;;;5.70;99.90;;;;;;5051588;28;20048;-38
2022/04/08 08:18:56;;;;;;;10.00;2.53;;;5.70;99.90;;;;;;5044597;28;20044;-39
2022/04/08 08:21:23;;;;;;;5.40;1.80;;;5.70;99.90;;;;;;5045314;28;20090;-38
2022/04/08 08:23:50;;;;;;;4.03;1.30;;;5.80;99.90;;;;;;5043908;28;20500;-39
2022/04/08 08:26:15;;;;;;;3.90;1.15;;;5.90;99.90;;;;;;5039350;28;20033;-39
2022/04/08 08:28:41;;;;;;;9.13;1.52;;;6.00;99.90;;;;;;5040200;28;20454;-38
2022/04/08 08:31:07;;;;;;;5.72;1.80;;;6.10;99.90;;;;;;5036837;28;20042;-39
2022/04/08 08:33:33;;;;;;;5.78;1.45;;;6.10;99.90;;;;;;5033916;28;20037;-39
2022/04/08 08:35:59;;;;;;;4.93;1.30;;;6.20;99.90;;;;;;5043678;28;20489;-39
2022/04/08 08:38:24;;;;;;;6.40;1.17;;;6.20;99.90;;;;;;5046144;28;20123;-39
2022/04/08 08:40:50;;;;;;;8.82;1.65;;;6.30;99.90;;;;;;5038030;28;20461;-39
2022/04/08 08:43:17;;;;;;;12.75;1.52;;;6.50;99.90;;;;;;5057290;28;20045;-40
2022/04/08 08:45:47;;;;;;;6.28;1.17;;;6.60;99.90;;;;;;5048931;28;20041;-39
2022/04/08 08:48:17;;;;;;;8.77;1.63;;;6.80;99.90;;;;;;5041604;28;20072;-38
2022/04/08 08:50:47;;;;;;;6.18;1.10;;;7.00;99.90;;;;;;5037249;28;20079;-38
2022/04/08 08:53:18;;;;;;;8.20;0.95;;;7.20;99.90;;;;;;5026224;28;20128;-38
2022/04/08 08:55:50;;;;;;;7.60;1.33;;;7.40;99.90;;;;;;5042568;28;20416;-39
2022/04/08 08:58:16;;;;;;;8.25;1.77;;;7.40;99.90;;;;;;5041344;28;20500;-38
2022/04/08 09:00:42;;;;;;;9.93;1.40;;;7.40;99.90;;;;;;5044455;28;20037;-39
2022/04/08 09:03:09;;;;;;;10.18;1.02;;;7.40;99.90;;;;;;5041978;28;20054;-39
2022/04/08 09:05:53;;;;;;;8.23;1.08;;;7.50;99.90;;;;;;5026686;28;20390;-40
2022/04/08 09:08:19;;;;;;;10.45;1.70;;;7.70;99.90;;;;;;5025785;28;20068;-39
2022/04/08 09:10:49;;;;;;;7.80;0.90;;;7.80;99.90;;;;;;5037662;28;20045;-39
2022/04/08 09:13:20;;;;;;;6.97;1.08;;;8.00;99.90;;;;;;5041974;28;20044;-39
2022/04/08 09:16:12;;;;;;;10.23;1.00;;;8.00;99.90;;;;;;5038978;28;20033;-39
2022/04/08 09:18:41;;;;;;;9.23;1.52;;;8.10;99.90;;;;;;5037953;28;20044;-38
2022/04/08 09:21:07;;;;;;;4.35;0.80;;;8.20;99.90;;;;;;5042399;28;20127;-41
2022/04/08 09:23:33;;;;;;;6.22;1.55;;;8.30;99.90;;;;;;5040184;28;20132;-38
2022/04/08 09:26:07;;;;;;;4.53;0.98;;;8.40;99.90;;;;;;5041926;28;20137;-41
2022/04/08 09:28:35;;;;;;;5.35;1.02;;;8.20;99.90;;;;;;5037393;28;20524;-39
2022/04/08 09:31:02;;;;;;;7.00;0.80;;;8.20;99.90;;;;;;5047296;28;20052;-39
2022/04/08 09:33:29;;;;;;;5.88;0.95;;;8.00;99.90;;;;;;5042680;28;20048;-38
2022/04/08 09:35:56;;;;;;;5.22;0.93;;;8.00;99.90;;;;;;5045579;28;20045;-39
2022/04/08 09:38:26;;;;;;;6.20;0.90;;;7.90;99.90;;;;;;5041508;28;20055;-39
2022/04/08 09:41:04;;;;;;;7.35;1.13;;;7.90;99.90;;;;;;5044535;28;20037;-39
2022/04/08 09:43:33;;;;;;;10.25;1.30;;;8.00;99.90;;;;;;5044102;28;20572;-42
2022/04/08 09:46:19;;;;;;;9.30;1.20;;;8.30;99.90;;;;;;5042587;28;20092;-40
2022/04/08 09:48:47;;;;;;;5.68;0.70;;;8.50;99.90;;;;;;5038443;28;20112;-38
2022/04/08 09:51:20;;;;;;;6.43;0.82;;;8.50;99.90;;;;;;5038496;28;20481;-39
2022/04/08 09:53:54;;;;;;;5.05;0.80;;;8.50;98.10;;;;;;5042393;28;20382;-38
2022/04/08 09:56:22;;;;;;;4.55;0.90;;;8.50;98.00;;;;;;5039799;28;20044;-40
2022/04/08 09:59:19;;;;;;;5.78;0.90;;;8.50;99.00;;;;;;5035910;28;20041;-41
2022/04/08 10:01:46;;;;;;;4.88;0.90;;;8.70;99.50;;;;;;5042742;28;20120;-42
2022/04/08 10:04:12;;;;;;;4.03;0.88;;;8.80;95.40;;;;;;5019073;28;20044;-43
2022/04/08 10:06:40;;;;;;;4.70;0.82;;;8.60;93.60;;;;;;5039836;28;20479;-39
2022/04/08 10:09:08;;;;;;;5.22;0.90;;;8.60;95.40;;;;;;5034550;28;20084;-38
2022/04/08 10:11:37;;;;;;;5.85;1.00;;;8.70;95.70;;;;;;5043073;28;20033;-40
2022/04/08 10:14:06;;;;;;;3.58;0.70;;;8.80;96.60;;;;;;5041865;28;20036;-38
2022/04/08 10:16:32;;;;;;;4.82;1.00;;;8.80;93.50;;;;;;5031511;28;20029;-38
2022/04/08 10:19:04;;;;;;;5.35;0.93;;;8.80;94.30;;;;;;5041076;28;20142;-39
2022/04/08 10:21:39;;;;;;;6.20;0.80;;;8.80;92.30;;;;;;5043689;28;20045;-40
2022/04/08 10:24:10;;;;;;;3.33;0.70;;;8.90;89.80;;;;;;5032991;28;20079;-40
2022/04/08 10:26:53;;;;;;;5.47;0.75;;;8.80;90.90;;;;;;5046130;28;20063;-38
2022/04/08 10:29:19;;;;;;;5.55;0.73;;;8.90;91.90;;;;;;5037393;28;20355;-39
2022/04/08 10:31:55;;;;;;;4.90;0.90;;;8.90;91.40;;;;;;5033701;28;20064;-38
2022/04/08 10:34:22;;;;;;;10.70;1.00;;;9.00;91.70;;;;;;5043297;28;20489;-39
2022/04/08 10:36:48;;;;;;;4.97;0.80;;;9.00;93.40;;;;;;5043198;28;20481;-40
2022/04/08 10:39:23;;;;;;;5.88;1.02;;;9.10;92.10;;;;;;5040263;28;20064;-40
2022/04/08 10:42:00;;;;;;;7.43;1.25;;;9.00;91.50;;;;;;5036865;28;20126;-39
2022/04/08 10:44:31;;;;;;;5.60;1.10;;;9.10;94.20;;;;;;5015588;28;20041;-39
2022/04/08 10:47:00;;;;;;;9.82;1.10;;;9.10;93.50;;;;;;5048776;28;20428;-39
2022/04/08 10:49:26;;;;;;;5.53;1.17;;;9.10;93.10;;;;;;5039717;28;20040;-39
2022/04/08 10:51:52;;;;;;;6.93;0.85;;;9.20;91.60;;;;;;5025008;28;20489;-39
2022/04/08 10:54:18;;;;;;;3.53;1.00;;;9.20;90.30;;;;;;5036715;28;20039;-38
2022/04/08 10:56:44;;;;;;;4.78;0.90;;;9.20;90.80;;;;;;5043462;28;20146;-38
2022/04/08 10:59:10;;;;;;;7.65;1.10;;;9.30;90.90;;;;;;5045172;28;20499;-40
2022/04/08 11:01:46;;;;;;;6.05;0.90;;;9.30;90.20;;;;;;5042304;28;20498;-40
2022/04/08 11:04:12;;;;;;;6.03;1.33;;;9.20;81.60;;;;;;5044611;28;20040;-40
2022/04/08 11:06:37;;;;;;;9.65;1.40;;;9.20;83.70;;;;;;5045362;28;20060;-38
2022/04/08 11:09:08;;;;;;;5.18;0.80;;;9.30;87.90;;;;;;5045818;28;20052;-39
2022/04/08 11:11:36;;;;;;;5.95;0.77;;;9.50;88.00;;;;;;5040613;28;20509;-38
2022/04/08 11:14:03;;;;;;;6.15;0.98;;;9.60;85.50;;;;;;5048906;28;20854;-39
2022/04/08 11:16:36;;;;;;;7.78;1.00;;;9.50;86.90;;;;;;5030400;28;20109;-38
2022/04/08 11:19:10;;;;;;;3.67;0.77;;;9.60;83.60;;;;;;5047480;28;20041;-38
2022/04/08 11:21:37;;;;;;;6.72;1.00;;;9.50;82.70;;;;;;5045299;28;20163;-39
2022/04/08 11:24:13;;;;;;;5.38;0.90;;;9.40;87.10;;;;;;5041647;28;20041;-38
2022/04/08 11:26:48;;;;;;;5.03;1.10;;;9.40;86.60;;;;;;5044771;28;20059;-39
2022/04/08 11:29:22;;;;;;;5.25;0.73;;;9.20;84.60;;;;;;5045238;28;20037;-39
2022/04/08 11:31:50;;;;;;;6.78;0.90;;;9.20;85.10;;;;;;5024313;28;20064;-38
2022/04/08 11:34:16;;;;;;;5.30;0.80;;;9.10;90.50;;;;;;5040903;28;20496;-40
2022/04/08 11:36:43;;;;;;;4.25;0.90;;;8.90;93.90;;;;;;5048272;28;20504;-38
2022/04/08 11:39:10;;;;;;;12.00;1.42;;;8.80;96.20;;;;;;5039445;28;20038;-38
2022/04/08 11:41:37;;;;;;;7.95;1.40;;;8.60;98.20;;;;;;5046061;28;20489;-40
2022/04/08 11:44:04;;;;;;;5.00;0.95;;;8.50;99.90;;;;;;5044047;28;20040;-41
2022/04/08 11:46:30;;;;;;;9.02;1.30;;;8.50;99.90;;;;;;5042508;28;20045;-38
2022/04/08 11:48:56;;;;;;;7.95;1.67;;;8.50;99.90;;;;;;5049427;28;20443;-38
2022/04/08 11:51:23;;;;;;;7.38;1.40;;;8.50;99.90;;;;;;5042406;28;20102;-39
2022/04/08 11:53:50;;;;;;;5.28;1.80;;;8.60;99.90;;;;;;5044028;28;20119;-38
2022/04/08 11:56:25;;;;;;;8.05;1.73;;;8.60;99.90;;;;;;5050792;28;20037;-38
2022/04/08 11:59:01;;;;;;;4.68;1.00;;;8.70;99.90;;;;;;5037605;28;20485;-39
2022/04/08 12:01:34;;;;;;;7.97;1.45;;;8.70;99.90;;;;;;5037930;28;20045;-39
2022/04/08 12:04:02;;;;;;;8.07;1.08;;;8.70;99.90;;;;;;5048765;28;20485;-37
2022/04/08 12:06:43;;;;;;;7.28;1.90;;;8.70;99.90;;;;;;5038691;28;20132;-38
2022/04/08 12:09:10;;;;;;;6.25;1.35;;;8.60;99.90;;;;;;5035100;28;20462;-38
2022/04/08 12:11:37;;;;;;;5.03;1.20;;;8.50;99.90;;;;;;5054798;28;20545;-41
2022/04/08 12:14:06;;;;;;;7.07;1.10;;;8.50;99.90;;;;;;5042085;28;20560;-42
2022/04/08 12:16:31;;;;;;;8.23;1.38;;;8.40;99.90;;;;;;5037990;28;20029;-38
2022/04/08 12:18:57;;;;;;;7.47;1.35;;;8.40;99.90;;;;;;5026455;28;20411;-38
2022/04/08 12:21:29;;;;;;;7.10;1.63;;;8.50;99.90;;;;;;5044703;28;20577;-38
2022/04/08 12:23:59;;;;;;;2.67;0.90;;;8.80;99.90;;;;;;5051847;28;20521;-39
2022/04/08 12:26:31;;;;;;;3.08;0.50;;;9.10;99.90;;;;;;5026192;28;20422;-38
2022/04/08 12:29:08;;;;;;;3.50;0.38;;;9.40;97.80;;;;;;5040300;28;20049;-39
2022/04/08 12:32:03;;;;;;;1.77;0.38;;;9.70;86.90;;;;;;5040467;28;20384;-38
2022/04/08 12:34:28;;;;;;;2.97;0.50;;;9.90;80.50;;;;;;5040870;28;20559;-39
2022/04/08 12:36:54;;;;;;;2.88;0.47;;;10.00;88.00;;;;;;5041325;28;20037;-39
2022/04/08 12:39:20;;;;;;;3.80;0.38;;;10.20;86.30;;;;;;5043595;28;20095;-41
2022/04/08 12:41:47;;;;;;;2.45;0.50;;;10.40;82.80;;;;;;5043469;28;20037;-38
2022/04/08 12:44:13;;;;;;;3.63;0.30;;;10.50;73.30;;;;;;5039472;28;20049;-39
2022/04/08 12:46:39;;;;;;;1.88;0.30;;;10.40;72.30;;;;;;5044915;28;20083;-41
2022/04/08 12:49:06;;;;;;;4.75;0.63;;;10.30;70.00;;;;;;5039573;28;20501;-39
2022/04/08 12:51:32;;;;;;;3.67;0.55;;;10.40;69.90;;;;;;5036292;28;20052;-38
2022/04/08 12:59:36;;;;;;;1.08;0.20;;;10.60;71.50;;;;;;5372787;23;20055;-78
2022/04/08 13:02:01;;;;;;;1.85;0.30;;;10.80;70.50;;;;;;4971354;28;20129;-79